createdAt,value
2017-07-16T00:00:51.381Z,74.70
2017-07-16T00:03:19.690Z,74.90
2017-07-16T00:05:48.009Z,75.20
2017-07-16T00:08:16.351Z,74.90
2017-07-16T00:10:44.671Z,75.00
2017-07-16T00:13:13.016Z,75.20
2017-07-16T00:15:41.329Z,75.50
2017-07-16T00:18:09.675Z,75.30
2017-07-16T00:20:38.010Z,75.40
2017-07-16T00:23:06.356Z,75.70
2017-07-16T00:25:34.671Z,75.90
2017-07-16T00:28:03.015Z,75.80
2017-07-16T00:30:31.369Z,75.90
2017-07-16T00:32:59.685Z,76.20
2017-07-16T00:35:28.033Z,76.30
2017-07-16T00:37:56.363Z,76.20
2017-07-16T00:40:24.719Z,75.90
2017-07-16T00:42:53.036Z,76.00
2017-07-16T00:45:21.386Z,76.80
2017-07-16T00:47:49.709Z,76.80
2017-07-16T00:50:18.052Z,77.10
2017-07-16T00:52:46.365Z,76.50
2017-07-16T00:55:14.682Z,76.20
2017-07-16T00:57:43.036Z,77.10
2017-07-16T01:00:11.343Z,77.40
2017-07-16T01:02:39.689Z,77.60
2017-07-16T01:05:08.006Z,78.70
2017-07-16T01:07:36.356Z,78.60
2017-07-16T01:10:05.786Z,78.50
2017-07-16T01:12:34.135Z,78.20
2017-07-16T01:15:02.457Z,78.00
2017-07-16T01:17:30.795Z,78.10
2017-07-16T01:19:59.108Z,78.50
2017-07-16T01:22:27.460Z,78.30
2017-07-16T01:24:55.782Z,78.80
2017-07-16T01:27:24.103Z,78.50
2017-07-16T01:29:52.437Z,78.00
2017-07-16T01:32:20.754Z,78.40
2017-07-16T01:37:49.286Z,78.30
2017-07-16T01:40:17.776Z,77.90
2017-07-16T01:42:46.088Z,77.20
2017-07-16T01:45:14.424Z,77.80
2017-07-16T01:47:42.730Z,77.60
2017-07-16T01:50:11.079Z,79.40
2017-07-16T01:52:39.396Z,80.50
2017-07-16T01:55:07.712Z,80.60
2017-07-16T01:57:36.041Z,79.80
2017-07-16T02:00:04.348Z,79.10
2017-07-16T02:02:32.693Z,79.20
2017-07-16T02:05:01.015Z,79.30
2017-07-16T02:07:29.349Z,79.30
2017-07-16T02:09:57.666Z,79.10
2017-07-16T02:12:26.007Z,78.20
2017-07-16T02:14:54.315Z,77.60
2017-07-16T02:17:22.949Z,78.00
2017-07-16T02:19:51.260Z,78.00
2017-07-16T02:22:19.609Z,78.70
2017-07-16T02:24:47.929Z,78.50
2017-07-16T02:27:16.240Z,78.70
2017-07-16T02:29:44.571Z,78.80
2017-07-16T02:32:12.884Z,79.00
2017-07-16T02:34:41.223Z,78.60
2017-07-16T02:37:09.531Z,77.90
2017-07-16T02:39:37.876Z,78.20
2017-07-16T02:42:06.192Z,78.00
2017-07-16T02:44:34.533Z,78.40
2017-07-16T02:47:02.849Z,78.80
2017-07-16T02:49:31.182Z,79.20
2017-07-16T02:51:59.503Z,80.50
2017-07-16T02:54:27.822Z,81.10
2017-07-16T02:56:56.169Z,80.50
2017-07-16T02:59:24.559Z,80.70
2017-07-16T03:01:57.816Z,80.20
2017-07-16T03:04:27.084Z,80.00
2017-07-16T03:06:55.416Z,79.70
2017-07-16T03:09:23.866Z,80.00
2017-07-16T03:11:52.194Z,80.00
2017-07-16T03:14:20.507Z,80.00
2017-07-16T03:16:48.952Z,80.30
2017-07-16T03:19:17.263Z,80.00
2017-07-16T03:21:45.577Z,79.60
2017-07-16T03:24:13.918Z,78.90
2017-07-16T03:26:42.239Z,79.20
2017-07-16T03:29:10.577Z,79.50
2017-07-16T03:31:38.897Z,79.80
2017-07-16T03:34:07.245Z,80.50
2017-07-16T03:36:35.556Z,80.20
2017-07-16T03:39:03.891Z,79.90
2017-07-16T03:41:32.209Z,79.30
2017-07-16T03:44:00.555Z,79.50
2017-07-16T03:46:28.881Z,80.70
2017-07-16T03:48:57.209Z,80.90
2017-07-16T03:51:25.549Z,80.80
2017-07-16T03:53:53.868Z,80.00
2017-07-16T03:56:22.195Z,80.60
2017-07-16T03:58:50.511Z,80.30
2017-07-16T04:01:18.846Z,79.80
2017-07-16T04:03:47.163Z,80.70
2017-07-16T04:06:15.503Z,80.20
2017-07-16T04:08:43.818Z,79.50
2017-07-16T04:11:12.140Z,80.50
2017-07-16T04:13:40.476Z,79.80
2017-07-16T04:16:08.793Z,79.90
2017-07-16T04:18:37.143Z,79.60
2017-07-16T04:21:05.450Z,80.60
2017-07-16T04:23:33.789Z,81.40
2017-07-16T04:26:02.097Z,83.20
2017-07-16T04:28:30.425Z,83.00
2017-07-16T04:30:58.730Z,81.60
2017-07-16T04:33:27.067Z,81.40
2017-07-16T04:35:55.384Z,81.30
2017-07-16T04:38:23.703Z,81.30
2017-07-16T04:40:52.051Z,81.30
2017-07-16T04:43:20.371Z,81.50
2017-07-16T04:45:48.709Z,81.60
2017-07-16T04:48:17.013Z,82.60
2017-07-16T04:50:45.345Z,83.20
2017-07-16T04:53:13.656Z,83.60
2017-07-16T04:55:41.997Z,84.30
2017-07-16T04:58:10.319Z,83.80
2017-07-16T05:00:38.647Z,83.60
2017-07-16T05:03:08.871Z,82.80
2017-07-16T05:05:37.219Z,82.00
2017-07-16T05:08:05.539Z,82.10
2017-07-16T05:10:33.898Z,81.80
2017-07-16T05:13:02.238Z,82.10
2017-07-16T05:15:30.555Z,82.00
2017-07-16T05:17:58.895Z,81.40
2017-07-16T05:20:27.208Z,81.50
2017-07-16T05:22:55.555Z,81.10
2017-07-16T05:25:23.868Z,81.30
2017-07-16T05:27:52.225Z,81.50
2017-07-16T05:30:20.544Z,81.20
2017-07-16T05:32:48.888Z,79.40
2017-07-16T05:35:17.200Z,81.10
2017-07-16T05:37:45.511Z,79.60
2017-07-16T05:40:13.848Z,79.30
2017-07-16T05:42:42.164Z,79.00
2017-07-16T05:45:10.507Z,78.20
2017-07-16T05:47:38.824Z,77.40
2017-07-16T05:50:07.167Z,77.10
2017-07-16T05:52:35.495Z,77.50
2017-07-16T05:55:03.837Z,77.30
2017-07-16T05:57:32.158Z,77.10
2017-07-16T06:00:00.499Z,77.50
2017-07-16T06:02:28.817Z,78.20
2017-07-16T06:04:57.165Z,76.50
2017-07-16T06:07:25.500Z,76.40
2017-07-16T06:09:57.391Z,76.40
2017-07-16T06:12:25.706Z,75.60
2017-07-16T06:14:54.023Z,74.40
2017-07-16T06:17:22.358Z,74.60
2017-07-16T06:19:50.680Z,74.20
2017-07-16T06:22:19.023Z,74.40
2017-07-16T06:24:47.344Z,74.80
2017-07-16T06:27:15.682Z,74.50
2017-07-16T06:29:43.997Z,74.60
2017-07-16T06:32:12.332Z,75.10
2017-07-16T06:34:40.650Z,74.50
2017-07-16T06:37:08.984Z,73.70
2017-07-16T06:39:37.312Z,73.10
2017-07-16T06:42:05.655Z,73.00
2017-07-16T06:44:34.915Z,73.00
2017-07-16T06:47:03.240Z,73.20
2017-07-16T06:49:31.575Z,74.20
2017-07-16T06:51:59.885Z,73.20
2017-07-16T06:54:28.222Z,72.90
2017-07-16T06:56:56.534Z,73.00
2017-07-16T06:59:24.871Z,72.70
2017-07-16T07:01:53.188Z,73.30
2017-07-16T07:04:21.524Z,72.40
2017-07-16T07:06:49.844Z,72.10
2017-07-16T07:09:18.191Z,72.50
2017-07-16T07:11:46.507Z,71.30
2017-07-16T07:14:14.826Z,71.10
2017-07-16T07:16:43.168Z,70.70
2017-07-16T07:19:11.486Z,70.50
2017-07-16T07:21:39.830Z,69.90
2017-07-16T07:24:08.158Z,69.70
2017-07-16T07:26:36.504Z,67.40
2017-07-16T07:29:04.817Z,68.80
2017-07-16T07:31:33.150Z,68.90
2017-07-16T07:34:01.467Z,69.40
2017-07-16T07:36:29.825Z,67.30
2017-07-16T07:38:58.143Z,67.10
2017-07-16T07:41:26.465Z,67.70
2017-07-16T07:43:54.809Z,66.10
2017-07-16T07:46:29.696Z,67.10
2017-07-16T07:48:58.043Z,67.10
2017-07-16T07:51:26.367Z,64.40
2017-07-16T07:53:54.708Z,62.80
2017-07-16T07:56:23.032Z,63.70
2017-07-16T07:58:51.485Z,64.00
2017-07-16T08:01:19.808Z,63.20
2017-07-16T08:03:48.139Z,61.90
2017-07-16T08:06:16.482Z,61.10
2017-07-16T08:08:44.809Z,62.80
2017-07-16T08:11:13.153Z,61.90
2017-07-16T08:13:41.566Z,60.50
2017-07-16T08:16:09.905Z,59.40
2017-07-16T08:18:38.227Z,59.30
2017-07-16T08:21:06.568Z,58.40
2017-07-16T08:23:34.892Z,58.40
2017-07-16T08:26:03.221Z,58.10
2017-07-16T08:28:31.781Z,57.00
2017-07-16T08:31:00.118Z,55.70
2017-07-16T08:33:28.432Z,56.40
2017-07-16T08:35:56.751Z,56.50
2017-07-16T08:38:25.093Z,56.10
2017-07-16T08:40:53.420Z,55.20
2017-07-16T08:43:21.771Z,55.00
2017-07-16T08:45:50.085Z,54.10
2017-07-16T08:48:18.430Z,54.30
2017-07-16T08:50:46.753Z,52.00
2017-07-16T08:53:15.099Z,52.30
2017-07-16T08:55:43.420Z,52.70
2017-07-16T08:58:11.899Z,52.50
2017-07-16T09:00:40.220Z,51.50
2017-07-16T09:06:08.373Z,49.80
2017-07-16T09:08:36.711Z,51.10
2017-07-16T09:11:05.027Z,50.00
2017-07-16T09:13:33.378Z,48.60
2017-07-16T09:16:01.695Z,50.20
2017-07-16T09:18:30.013Z,50.20
2017-07-16T09:20:58.355Z,49.20
2017-07-16T09:23:26.675Z,51.60
2017-07-16T09:25:55.018Z,49.40
2017-07-16T09:28:23.337Z,46.60
2017-07-16T09:30:51.676Z,49.10
2017-07-16T09:33:19.991Z,51.20
2017-07-16T09:35:48.332Z,49.60
2017-07-16T09:38:16.650Z,50.70
2017-07-16T09:40:44.988Z,49.50
2017-07-16T09:43:13.301Z,50.20
2017-07-16T09:45:41.659Z,49.40
2017-07-16T09:48:09.974Z,48.70
2017-07-16T09:50:38.304Z,48.10
2017-07-16T09:53:06.639Z,46.80
2017-07-16T09:55:34.965Z,47.20
2017-07-16T09:58:03.300Z,47.90
2017-07-16T10:00:31.615Z,47.00
2017-07-16T10:03:19.103Z,48.50
2017-07-16T10:05:47.422Z,46.10
2017-07-16T10:08:15.766Z,47.20
2017-07-16T10:10:44.076Z,46.40
2017-07-16T10:13:14.367Z,44.30
2017-07-16T10:15:42.688Z,45.90
2017-07-16T10:18:11.029Z,46.50
2017-07-16T10:20:39.379Z,41.50
2017-07-16T10:23:07.690Z,44.00
2017-07-16T10:25:36.026Z,45.50
2017-07-16T10:28:04.347Z,44.60
2017-07-16T10:30:32.733Z,41.30
2017-07-16T10:33:01.054Z,42.10
2017-07-16T10:35:29.419Z,44.40
2017-07-16T10:37:57.730Z,43.50
2017-07-16T10:40:26.064Z,43.40
2017-07-16T10:42:54.394Z,44.10
2017-07-16T10:45:22.737Z,44.30
2017-07-16T10:47:54.223Z,45.70
2017-07-16T10:50:22.576Z,44.50
2017-07-16T10:52:50.899Z,43.40
2017-07-16T10:55:19.221Z,45.10
2017-07-16T10:57:47.561Z,44.60
2017-07-16T11:00:15.871Z,44.40
2017-07-16T11:02:44.215Z,42.10
2017-07-16T11:05:12.532Z,43.70
2017-07-16T11:07:40.870Z,45.90
2017-07-16T11:10:10.028Z,44.00
2017-07-16T11:12:38.359Z,44.80
2017-07-16T11:15:06.680Z,44.60
2017-07-16T11:17:35.040Z,45.40
2017-07-16T11:20:03.368Z,44.20
2017-07-16T11:22:31.688Z,44.30
2017-07-16T11:25:00.024Z,45.40
2017-07-16T11:27:28.340Z,45.30
2017-07-16T11:29:56.673Z,42.30
2017-07-16T11:32:24.985Z,44.20
2017-07-16T11:34:53.331Z,41.50
2017-07-16T11:37:21.642Z,43.10
2017-07-16T11:39:49.973Z,43.90
2017-07-16T11:42:22.166Z,43.00
2017-07-16T11:44:50.542Z,42.30
2017-07-16T11:47:18.961Z,42.70
2017-07-16T11:49:47.307Z,41.40
2017-07-16T11:52:15.618Z,41.90
2017-07-16T11:54:45.673Z,40.20
2017-07-16T11:57:14.025Z,42.20
2017-07-16T11:59:42.337Z,40.60
2017-07-16T12:02:10.679Z,38.10
2017-07-16T12:04:38.997Z,40.00
2017-07-16T12:07:07.340Z,40.20
2017-07-16T12:09:35.657Z,42.00
2017-07-16T12:12:04.025Z,41.50
2017-07-16T12:14:32.356Z,41.20
2017-07-16T12:17:00.679Z,42.40
2017-07-16T12:19:29.013Z,41.70
2017-07-16T12:21:57.324Z,41.40
2017-07-16T12:24:25.669Z,43.50
2017-07-16T12:26:53.982Z,41.90
2017-07-16T12:29:22.319Z,41.20
2017-07-16T12:31:50.638Z,40.10
2017-07-16T12:34:18.975Z,40.30
2017-07-16T12:36:47.288Z,41.40
2017-07-16T12:39:15.641Z,40.60
2017-07-16T12:41:43.959Z,41.60
2017-07-16T12:44:12.275Z,41.10
2017-07-16T12:46:40.616Z,38.90
2017-07-16T12:49:08.938Z,40.80
2017-07-16T12:51:37.301Z,38.20
2017-07-16T12:54:05.623Z,44.30
2017-07-16T12:56:33.969Z,39.20
2017-07-16T12:59:02.279Z,41.30
2017-07-16T13:01:30.616Z,41.10
2017-07-16T13:03:58.932Z,42.00
2017-07-16T13:06:27.273Z,42.20
2017-07-16T13:08:55.591Z,40.80
2017-07-16T13:11:23.942Z,41.80
2017-07-16T13:13:52.260Z,42.10
2017-07-16T13:16:20.577Z,42.10
2017-07-16T13:18:48.911Z,41.40
2017-07-16T13:21:17.225Z,42.60
2017-07-16T13:23:45.567Z,41.70
2017-07-16T13:26:26.979Z,42.30
2017-07-16T13:28:55.324Z,41.00
2017-07-16T13:31:23.649Z,42.80
2017-07-16T13:33:51.991Z,42.70
2017-07-16T13:36:20.466Z,42.60
2017-07-16T13:38:49.733Z,42.50
2017-07-16T13:41:18.039Z,42.70
2017-07-16T13:43:46.370Z,43.60
2017-07-16T13:46:14.714Z,41.90
2017-07-16T13:48:43.040Z,44.20
2017-07-16T13:51:11.603Z,42.90
2017-07-16T13:53:39.936Z,42.50
2017-07-16T13:56:08.274Z,41.90
2017-07-16T13:58:36.592Z,42.00
2017-07-16T14:01:04.937Z,39.80
2017-07-16T14:03:33.247Z,42.30
2017-07-16T14:06:01.592Z,43.80
2017-07-16T14:08:29.919Z,41.40
2017-07-16T14:10:58.275Z,42.70
2017-07-16T14:13:26.592Z,43.40
2017-07-16T14:15:54.912Z,42.70
2017-07-16T14:18:23.258Z,43.50
2017-07-16T14:20:51.596Z,43.30
2017-07-16T14:23:19.935Z,43.30
2017-07-16T14:25:48.266Z,43.50
2017-07-16T14:28:16.613Z,43.30
2017-07-16T14:30:44.936Z,43.00
2017-07-16T14:33:13.276Z,44.30
2017-07-16T14:35:41.593Z,42.80
2017-07-16T14:38:09.934Z,44.00
2017-07-16T14:40:38.256Z,42.60
2017-07-16T14:43:06.570Z,43.00
2017-07-16T14:45:34.921Z,44.10
2017-07-16T14:48:03.242Z,43.90
2017-07-16T14:50:31.575Z,44.30
2017-07-16T14:52:59.893Z,44.50
2017-07-16T14:55:28.234Z,43.50
2017-07-16T14:58:10.779Z,43.70
2017-07-16T15:00:39.121Z,44.30
2017-07-16T15:03:07.437Z,43.50
2017-07-16T15:05:35.753Z,43.80
2017-07-16T15:08:04.086Z,44.00
2017-07-16T15:10:32.416Z,44.40
2017-07-16T15:13:00.753Z,44.30
2017-07-16T15:15:29.988Z,44.90
2017-07-16T15:17:58.340Z,44.30
2017-07-16T15:20:26.660Z,44.40
2017-07-16T15:22:55.006Z,43.80
2017-07-16T15:25:23.316Z,46.30
2017-07-16T15:27:51.637Z,45.60
2017-07-16T15:30:19.977Z,45.80
2017-07-16T15:32:48.447Z,45.10
2017-07-16T15:35:16.791Z,45.00
2017-07-16T15:37:45.109Z,45.40
2017-07-16T15:40:13.452Z,46.10
2017-07-16T15:42:41.768Z,46.40
2017-07-16T15:45:10.109Z,46.90
2017-07-16T15:47:38.540Z,44.50
2017-07-16T15:50:06.899Z,44.40
2017-07-16T15:52:35.224Z,44.60
2017-07-16T15:55:03.537Z,45.10
2017-07-16T15:57:31.875Z,44.80
2017-07-16T16:00:00.206Z,46.00
2017-07-16T16:02:28.587Z,46.50
2017-07-16T16:04:56.899Z,45.00
2017-07-16T16:07:26.143Z,44.60
2017-07-16T16:09:54.467Z,44.90
2017-07-16T16:12:22.811Z,45.40
2017-07-16T16:14:51.158Z,45.90
2017-07-16T16:17:19.743Z,46.40
2017-07-16T16:19:48.213Z,45.70
2017-07-16T16:22:16.544Z,45.70
2017-07-16T16:24:44.888Z,45.70
2017-07-16T16:27:13.206Z,45.40
2017-07-16T16:29:41.548Z,45.70
2017-07-16T16:32:09.939Z,46.10
2017-07-16T16:34:38.313Z,45.90
2017-07-16T16:37:06.630Z,45.90
2017-07-16T16:39:34.967Z,46.10
2017-07-16T16:42:03.296Z,45.70
2017-07-16T16:44:31.631Z,46.40
2017-07-16T16:46:59.977Z,46.40
2017-07-16T16:49:28.324Z,46.40
2017-07-16T16:51:56.655Z,46.70
2017-07-16T16:54:24.978Z,47.00
2017-07-16T16:56:53.314Z,46.60
2017-07-16T16:59:21.640Z,46.10
2017-07-16T17:01:50.084Z,46.40
2017-07-16T17:04:18.408Z,47.70
2017-07-16T17:06:46.754Z,47.10
2017-07-16T17:09:15.075Z,46.70
2017-07-16T17:11:43.421Z,46.30
2017-07-16T17:14:11.749Z,46.90
2017-07-16T17:16:40.111Z,46.20
2017-07-16T17:19:08.425Z,46.30
2017-07-16T17:21:36.786Z,46.10
2017-07-16T17:24:05.120Z,47.30
2017-07-16T17:26:33.475Z,46.50
2017-07-16T17:29:01.786Z,47.60
2017-07-16T17:31:30.115Z,47.50
2017-07-16T17:33:58.471Z,47.00
2017-07-16T17:36:26.788Z,48.20
2017-07-16T17:38:55.191Z,47.40
2017-07-16T17:41:23.509Z,47.70
2017-07-16T17:43:51.853Z,48.30
2017-07-16T17:46:20.180Z,47.60
2017-07-16T17:48:48.521Z,48.60
2017-07-16T17:51:16.849Z,48.80
2017-07-16T17:53:45.269Z,48.70
2017-07-16T17:56:13.593Z,49.00
2017-07-16T17:58:41.913Z,49.30
2017-07-16T18:01:10.266Z,49.00
2017-07-16T18:03:38.633Z,49.10
2017-07-16T18:09:07.204Z,49.30
2017-07-16T18:14:29.165Z,49.70
2017-07-16T18:16:57.537Z,50.40
2017-07-16T18:19:25.869Z,50.00
2017-07-16T18:21:54.206Z,49.60
2017-07-16T18:24:22.523Z,50.20
2017-07-16T18:26:50.859Z,50.40
2017-07-16T18:29:19.352Z,50.10
2017-07-16T18:31:47.736Z,50.90
2017-07-16T18:34:16.070Z,51.20
2017-07-16T18:36:44.416Z,51.50
2017-07-16T18:39:12.754Z,51.30
2017-07-16T18:41:41.119Z,51.40
2017-07-16T18:44:09.435Z,52.20
2017-07-16T18:46:37.774Z,51.80
2017-07-16T18:49:06.123Z,52.00
2017-07-16T18:51:34.442Z,52.50
2017-07-16T18:54:02.781Z,52.70
2017-07-16T18:56:31.105Z,53.20
2017-07-16T18:58:59.465Z,53.80
2017-07-16T19:01:27.810Z,53.70
2017-07-16T19:03:56.153Z,54.30
2017-07-16T19:06:24.474Z,54.40
2017-07-16T19:08:52.819Z,54.40
2017-07-16T19:11:21.145Z,55.00
2017-07-16T19:13:49.454Z,55.20
2017-07-16T19:16:17.819Z,56.20
2017-07-16T19:18:46.145Z,56.30
2017-07-16T19:21:14.496Z,55.60
2017-07-16T19:23:42.806Z,56.00
2017-07-16T19:26:11.170Z,56.40
2017-07-16T19:28:39.566Z,57.00
2017-07-16T19:31:08.005Z,57.00
2017-07-16T19:33:36.328Z,56.70
2017-07-16T19:36:04.681Z,57.10
2017-07-16T19:38:33.016Z,57.70
2017-07-16T19:41:01.336Z,58.00
2017-07-16T19:43:29.671Z,58.40
2017-07-16T19:45:58.126Z,58.60
2017-07-16T19:48:26.474Z,58.80
2017-07-16T19:50:54.794Z,59.10
2017-07-16T19:53:30.243Z,59.60
2017-07-16T19:55:58.571Z,59.90
2017-07-16T19:58:26.930Z,60.00
2017-07-16T20:00:55.257Z,60.30
2017-07-16T20:03:23.598Z,60.90
2017-07-16T20:05:51.916Z,60.40
2017-07-16T20:08:20.270Z,60.70
2017-07-16T20:10:48.596Z,61.50
2017-07-16T20:13:16.914Z,61.80
2017-07-16T20:15:45.256Z,61.60
2017-07-16T20:18:13.590Z,61.40
2017-07-16T20:20:41.928Z,62.40
2017-07-16T20:23:10.256Z,62.60
2017-07-16T20:25:38.608Z,63.60
2017-07-16T20:28:06.935Z,63.40
2017-07-16T20:30:35.289Z,63.90
2017-07-16T20:33:03.619Z,63.60
2017-07-16T20:35:31.964Z,63.50
2017-07-16T20:38:00.292Z,63.80
2017-07-16T20:40:28.666Z,64.50
2017-07-16T20:42:56.985Z,64.20
2017-07-16T20:45:25.315Z,65.00
2017-07-16T20:47:53.663Z,64.90
2017-07-16T20:50:21.999Z,66.20
2017-07-16T20:52:50.350Z,65.10
2017-07-16T20:55:18.710Z,65.20
2017-07-16T20:57:47.068Z,65.20
2017-07-16T21:00:15.388Z,65.70
2017-07-16T21:02:43.764Z,66.50
2017-07-16T21:05:12.088Z,66.30
2017-07-16T21:07:40.415Z,66.90
2017-07-16T21:10:08.780Z,67.80
2017-07-16T21:12:37.114Z,66.90
2017-07-16T21:15:05.461Z,66.60
2017-07-16T21:17:33.787Z,67.50
2017-07-16T21:20:02.143Z,67.90
2017-07-16T21:22:30.470Z,67.90
2017-07-16T21:24:58.822Z,67.30
2017-07-16T21:27:27.179Z,67.90
2017-07-16T21:29:55.538Z,68.00
2017-07-16T21:32:23.866Z,68.80
2017-07-16T21:34:52.260Z,69.50
2017-07-16T21:37:20.596Z,68.60
2017-07-16T21:39:48.963Z,69.00
2017-07-16T21:42:17.308Z,68.80
2017-07-16T21:44:45.632Z,69.20
2017-07-16T21:47:13.979Z,68.90
2017-07-16T21:49:42.311Z,69.50
2017-07-16T21:52:10.651Z,69.30
2017-07-16T21:54:38.982Z,69.30
2017-07-16T21:57:07.319Z,68.70
2017-07-16T21:59:35.647Z,69.30
2017-07-16T22:02:03.991Z,69.50
2017-07-16T22:04:32.316Z,69.70
2017-07-16T22:07:00.655Z,69.90
2017-07-16T22:09:28.976Z,70.00
2017-07-16T22:11:57.319Z,70.20
2017-07-16T22:14:25.664Z,70.20
2017-07-16T22:16:54.022Z,69.90
2017-07-16T22:19:22.353Z,70.00
2017-07-16T22:21:50.706Z,69.60
2017-07-16T22:24:19.032Z,70.40
2017-07-16T22:26:47.355Z,70.60
2017-07-16T22:29:15.713Z,70.30
2017-07-16T22:31:44.040Z,70.40
2017-07-16T22:34:12.383Z,70.70
2017-07-16T22:36:40.711Z,70.90
2017-07-16T22:39:09.113Z,71.20
2017-07-16T22:41:37.433Z,71.20
2017-07-16T22:44:05.772Z,71.20
2017-07-16T22:46:34.098Z,70.90
2017-07-16T22:49:02.456Z,70.90
2017-07-16T22:51:30.778Z,71.20
2017-07-16T22:53:59.105Z,72.20
2017-07-16T22:56:27.446Z,72.60
2017-07-16T22:58:55.765Z,73.10
2017-07-16T23:01:24.113Z,73.20
2017-07-16T23:03:52.432Z,73.10
2017-07-16T23:06:20.769Z,72.20
2017-07-16T23:08:49.083Z,70.80
2017-07-16T23:11:17.424Z,71.10
2017-07-16T23:13:45.750Z,72.40
2017-07-16T23:16:14.130Z,72.60
2017-07-16T23:18:42.443Z,72.60
2017-07-16T23:21:10.772Z,74.10
2017-07-16T23:23:39.111Z,73.00
2017-07-16T23:26:07.425Z,73.10
2017-07-16T23:28:35.800Z,72.60
2017-07-16T23:31:04.116Z,72.40
2017-07-16T23:33:32.461Z,72.20
2017-07-16T23:36:00.783Z,73.00
2017-07-16T23:38:29.128Z,73.30
2017-07-16T23:40:57.447Z,73.00
2017-07-16T23:43:25.789Z,72.60
2017-07-16T23:45:54.108Z,72.70
2017-07-16T23:48:22.434Z,73.20
2017-07-16T23:50:50.792Z,73.30
2017-07-16T23:53:19.120Z,73.50
2017-07-16T23:55:47.457Z,73.50
2017-07-16T23:58:15.781Z,74.10
